Dutch
Home     News     Corporate     Events & Tours     Flight ops     Crew centre      
My transavia virtual    Join us    Last logs    Who is flying    Software    Training    VRTS     
 

view flightdata
view flightplan
view OFP
view flightlog



flightdata:
pilot: Bernard B Mienville
flight: TVF4103
from: DTTJ (Djerba)
to: LFPO (Paris Paris Orly)
date: 14-09-2018
departure: 16:40z
arrival: 19:27z
duration: 2:47
aircraft: B738 (FHTVA)
distance: 1010 NM
touchdown: -125 ft/m @ 116 KIAS



flightplan:
-(FPL-TVF4103-IS
-B738/M-SDFGHIRWXY/LB1
-DTTJ1645
-N0444F240 KBIR1B KBIRA V334 NEDOS/N0454F370 UP161 TUC/N0454F380 UM733 OSMAR DCT PIRIX DCT UPDUT DCT CORSI UM733 GIPNO/N0455F320 UM733 ARDOL
-LFPO0223 LFPG
-EET/LIRR0041 LFFF0106 PBN/A1B1D1O1S1 DOF/180914 REG/FHTVA SEL/AMBH CODE/4841A5 OPR/TVF RVR/200 RMK/TCAS CALLSIGN FRANCE SOLEIL)



operational flightplan (OFP):
DISPATCH BRIEFING
--------- --------- --------- --------- --------- --------- --------- --------- --------- ---------
PREDEPARTURE ATC CLEARANCE:
.

.
--------- --------- --------- --------- --------- --------- --------- --------- --------- ---------
OFP 1       14 SEP 18/16:30


TVF4103    C/S TVF3291  DTTJ/DJE    LFPO/ORY            CRYZ SYS               CI 36
14 SEP 18  F-HTVA       1400/1410   1638/1633           GND DIST      968   
B737-800 CF  TAB:       CTOT ....  STA 16:45           AIR DIST      997
                                                       AVG W/C          0
MAXIMUM    ZFW 61688  LAW 65317   TOW 73999            AVG ISA       M05
ESTIMATED  ZFW 57396  LAW 59956   TOW 65994            F-F FACTOR    0.0
ACTUAL     ZFW......  LAW......   TOW.......

--------- --------- --------- --------- --------- --------- --------- --------- --------- ---------
TRIP        6038   0223           .....  .....
CONT         302   0008           .....  .....
ALTN         715   0016  LFPG     .....  .....  ....
FINAL       1074   0030           .....  .....
ADDNL        469   0013           .....  .....
TANKERING                  
PLN TOF     8129   0318
DIFF        ....   ....
PLN TOF     ....   ....  (CORRECTED)   
EXTRA          0   ....                  
TOF         8129                    
TAXI         200                      
BLOCK       8798        

--------- --------- --------- --------- --------- --------- --------- --------- --------- ---------

REASON EXTRA FUEL     MATRIX FUEL: ...
O ECN-ECONOMICAL      O TMP-TEMPORARILY      O ATC-AIR TRAFFIC CONTROL
O FOB-FUEL ON BOARD   O MSC-MISCELLANEOUS    O FPC-FLIGHT PLN CORR
O WXR-WEATHER         O TEC_TECHNICAL        ACT.CI/CRZ USED: . . .

--------- --------- --------- --------- --------- --------- --------- --------- --------- ---------
                                                  00 MIN HOLD LFPO: 0 EXTRA


--------- --------- --------- --------- --------- --------- --------- --------- --------- ---------
COMMANDERS NAME:                                  SIGNATURE:

--------- --------- --------- --------- --------- --------- --------- --------- --------- ---------
FROM:   DTTJ ELEV 19         TO: LFPO ELEV 291     ALTN: LFPG ELEV 392
ATC C/S      : C/S TVF4103                AVG ISA  : ...
CO-ROUTE     : ---                       AVG TT   :
FMC-RES      : 1789                      AVG W/C  : 0
CRZ ALT      : FL380
CRZ SYS      : CI 36


           DTTJ/27  N0444F240 KBIR1B KBIRA V334 NEDOS/N0454F370 UP161 TUC/N0454F380 UM733
OSMAR DCT PIRIX DCT UPDUT DCT CORSI UM733 GIPNO/N0455F320 UM733 ARDOL
ARDO7W LFPO/26

--------- --------- --------- --------- --------- --------- --------- --------- --------- ---------


RVSM ALT CHECK:  FL:...... LEFT: ...... STBY: ...... RIGHT: ......

--------- --------- --------- --------- --------- --------- --------- --------- --------- ---------
DESTINATION ALTERNATE LFPG
--------- --------- --------- --------- --------- --------- --------- --------- --------- ---------



--------- --------- --------- --------- --------- --------- --------- --------- --------- ---------
ALTERNATE SUMMARY
--------- --------- --------- --------- --------- --------- --------- --------- --------- ---------

     ALTN     DIST  LVL      WC    TIME   FUEL  VIA
     LFPG/27R   60 FL100       0   0016    715  TSU DCT PON
INFO/LFQQ/26   159 FL240       0   0032   1371  NURM5P NURMO UN874 CMB CMB5B
                                          P656
INFO/LFRS/21   206 FL290       0   0039   1638  LGL5P LGL UT176 ROLEN UZ15
                                                 ARDOD A5 VALAX VALA1A
                                          P923
INFO/EBBR/25L  213 FL300       0   0039   1681  NURM5P NURMO UN874 CMB UZ373
                                                 ARVOL ARVO7A
                                          P966


--------- --------- --------- --------- --------- --------- --------- --------- --------- ---------

-(FPL-TVF4103-IS
-B738/M-SDFGHIRWXY/LB1
-DTTJ1645
-N0444F240 KBIR1B KBIRA V334 NEDOS/N0454F370 UP161 TUC/N0454F380 UM733 OSMAR DCT PIRIX DCT UPDUT DCT CORSI UM733 GIPNO/N0455F320 UM733 ARDOL
-LFPO0223 LFPG
-EET/LIRR0041 LFFF0106 PBN/A1B1D1O1S1 DOF/180914 REG/FHTVA SEL/AMBH CODE/4841A5 OPR/TVF RVR/200 RMK/TCAS CALLSIGN FRANCE SOLEIL)

WEATHER BRIEFING - GENERATED 14 SEP 2018 16:30 UTC
--------------------------------------------------------------------------------

DTTJ LFPO LFPG LFQQ LFRS EBBR

--------------------------------------------------------------------------------
ORIGIN: DTTJ (DJERBA)
--------------------------------------------------------------------------------
DTTJ 141600Z 25003KT 210V290 9999 FEW020 32/13 Q1016 NOSIG

DTTJ 141140Z 1412/1512 30008KT 9999 SCT020 SCT030
      BECMG 1414/1416 17004KT
      BECMG 1419/1421 05014KT


--------------------------------------------------------------------------------
DESTINATION: LFPO (PARIS)
--------------------------------------------------------------------------------
LFPO 141600Z 30008KT 260V350 CAVOK 21/07 Q1021 NOSIG

LFPO 141100Z 1412/1518 34005KT CAVOK


--------------------------------------------------------------------------------
ALTERNATE: LFPG (PARIS)
--------------------------------------------------------------------------------
LFPG 141600Z 29009KT 250V330 CAVOK 21/05 Q1021 NOSIG

LFPG 141100Z 1412/1518 27005KT 9999 FEW040 TX22/1415Z TN09/1505Z=  LFPO 141100Z 1412/1518 34005KT CAVOK


--------------------------------------------------------------------------------
ALTERNATE: LFQQ (LILLE)
--------------------------------------------------------------------------------
LFQQ 141600Z AUTO 26010KT CAVOK 17/09 Q1021 NOSIG

LFQQ 141100Z 1412/1518 28010KT 9999 SCT040
      BECMG 1418/1421 21006KT
      TEMPO 1503/1507 2000 BR
      BECMG 1510/1512 27010KT


--------------------------------------------------------------------------------
ALTERNATE: LFRS (NANTES)
--------------------------------------------------------------------------------
LFRS 141600Z AUTO 34005KT 300V030 CAVOK 22/07 Q1022 NOSIG

LFRS 141100Z 1412/1518 35005KT CAVOK
      BECMG 1420/1423 VRB03KT
      BECMG 1508/1511 07007KT


--------------------------------------------------------------------------------
ALTERNATE: EBBR (BRUSSELS)
--------------------------------------------------------------------------------
EBBR 141620Z 29009KT 250V320 9999 FEW041 17/09 Q1021 NOSIG

EBBR 141110Z 1412/1518 27008KT 9999 SCT040=  EDDF 141100Z 1412/1518 27005KT 9999 SCT040


NOTAM BRIEFING - GENERATED 14 SEP 2018 16:31 UTC
--------------------------------------------------------------------------------

DTTJ LFPO LFPG LFPG LFQQ LFRS EBBR

--------------------------------------------------------------------------------
GLOBAL TRANSAVIA.COM VIRTUAL NOTAMS
--------------------------------------------------------------------------------
REF:NIL PLEASE CONTACT OPERATIONS IN CASE OF STRUCTURAL FLIGHTPLAN ERRORS ON FLIGHT-OPS@TRANSAVIA-VIRTUAL.COM
VALID:UFN

REF:NIL
PLEASE CHECK ACARS EVERY 10 MINUTES WHEN FLYING WITH SOUND OFF. AN NEW ACARS MESSAGE PRODUCE A SOUND SIGNAL UNTILL ITS READ. FLOWCONTROL DON'T RECEIVE MUCH REACTION ON OUTGOING ACARS MESSAGES ACCORDING FLIGHTSTATUS.
SOURCE: SPL/HV/OCC/
END VALID: UFN

REF:NIL
PLEASE CONTACT FLOWCONTROL IN CASE OF PROBLEMS WITH ROUTINGS
SOURCE: SPL/HV/OCC/
END VALID: UFN

REF:NIL
IN CASE OF ENGINE-OUT FLY V2 OR V2 20 MAX. UNTIL ABOVE MSA.
LEVEL-OFF AT AN ALTITUDE ROUNDED OFF TO THE FIRST 1000 FT OF THE HIGHEST MSA.
E.G: MSA EHAM; 1.7 AND 2.3 LEVEL-OFF 3000 FT. AFTER LANDING MAKE A REP TO OCC ON 131.975
SOURCE:SPL/HV/OCC
END VALID:UFN



flightlog:
Pilot : Bernard B Mienville
Flight: TVF4103
From  : DTTJ Djerba
To    : LFPO Paris

[FLIGHTLOG] 1.5.4
14-09-2018 16:38:53z, logging started
14-09-2018 16:38:59z, flaps set to 13%
14-09-2018 16:39:00z, flaps set to 50%
14-09-2018 16:40:48z, parking brake released
14-09-2018 16:46:02z, pos report: 007 KIAS, 00 027 ft, heading 044, winds 258 @ 03 kts
14-09-2018 16:51:42z, take-off at 153 KIAS
14-09-2018 16:51:42z, pos report: 153 KIAS, 00 030 ft, heading 268, winds 000 @ 02 kts
14-09-2018 16:51:42z, flying OFFLINE
14-09-2018 16:51:42z, position: DTTJ - Djerba
14-09-2018 16:51:52z, retracted gear at 164 KIAS and 179 ft AGL
14-09-2018 16:52:55z, flaps set to 13%
14-09-2018 16:53:38z, flaps set to 0%
14-09-2018 17:01:03z, pos report: 286 KIAS, 20 358 ft, heading 331, winds 304 @ 27 kts
14-09-2018 17:16:04z, pos report: 261 KIAS, 38 085 ft, heading 001, winds 294 @ 41 kts
14-09-2018 17:31:05z, pos report: 258 KIAS, 38 104 ft, heading 341, winds 289 @ 38 kts
14-09-2018 17:46:06z, pos report: 258 KIAS, 38 107 ft, heading 343, winds 289 @ 32 kts
14-09-2018 18:01:07z, pos report: 258 KIAS, 38 094 ft, heading 351, winds 287 @ 36 kts
14-09-2018 18:16:08z, pos report: 259 KIAS, 38 057 ft, heading 326, winds 281 @ 43 kts
14-09-2018 18:31:09z, pos report: 259 KIAS, 38 079 ft, heading 320, winds 279 @ 57 kts
14-09-2018 18:46:10z, pos report: 258 KIAS, 38 189 ft, heading 321, winds 274 @ 61 kts
14-09-2018 19:01:11z, pos report: 291 KIAS, 26 839 ft, heading 331, winds 279 @ 35 kts
14-09-2018 19:16:12z, pos report: 240 KIAS, 07 474 ft, heading 002, winds 281 @ 13 kts
14-09-2018 19:17:32z, flaps set to 13%
14-09-2018 19:18:59z, flaps set to 38%
14-09-2018 19:20:46z, below glideslope
14-09-2018 19:20:58z, flaps set to 50%
14-09-2018 19:21:07z, intercepted localizer
14-09-2018 19:21:38z, flaps set to 62%
14-09-2018 19:21:41z, lowered gear at 200 KIAS and 2680 ft AGL
14-09-2018 19:22:11z, on glideslope
14-09-2018 19:23:40z, flaps set to 87%
14-09-2018 19:24:08z, deployed spoilers
14-09-2018 19:24:18z, retracted spoilers
14-09-2018 19:24:38z, below glideslope
14-09-2018 19:25:54z, touchdown: -125ft/m at 116 KIAS
14-09-2018 19:25:54z, pos report: 116 KIAS, 00 302 ft, heading 257, winds 306 @ 09 kts
14-09-2018 19:25:54z, flying OFFLINE
14-09-2018 19:25:54z, position: LFPO - Paris
14-09-2018 19:26:14z, retracted spoilers
14-09-2018 19:26:18z, flaps set to 38%
14-09-2018 19:26:19z, flaps set to 13%
14-09-2018 19:26:20z, flaps set to 0%
14-09-2018 19:27:51z, parking brake set
14-09-2018 19:28:54z, logging ended
14-09-2018 19:28:54z, this flight was flown offline

©2009-2020, transavia virtual. All rights reserved. This website is only meant for simulation purposes.
This website is not owned by transavia, nor is transavia responsible for the content of this website.